Terminal Aerodrome Forecast
Issued by NWS

Home | Current Version | Previous Version | Text Only | Print | Product List | Glossary On
Versions: 1 2 3 4 5 6 7 8 9 10 11 12 13 14 15 16 17 18 19 20 21 22 23 24 25 26 27 28 29 30 31 32 33 34 35 36 37 38 39
000
FTUS45 KBOU 302202 AAB
TAFBJC
TAF AMD
KBJC 302202Z 3022/0118 35018KT 3SM -SN BR BKN007 OVC020
      TEMPO 3022/3023 1SM -SN BR BKN005
     FM302300 34015KT P6SM -SN SCT015 OVC025
      TEMPO 3023/3024 2SM -SN BR FEW007 OVC010
     FM010000 03012KT P6SM VCSH SCT010 OVC020
      TEMPO 0100/0102 2SM -SN BR FEW007 OVC010
     FM010400 34008KT 5SM -SN SCT004 OVC010
     FM010900 36006KT 3SM -SN BR BKN007
     FM011500 01009KT P6SM -SHSN SCT008 BKN015=

USA.gov is the U.S. government's official web portal to all federal, state and local government web resources and services.